Startpagina
METAR-TAF:

METAR-TAF

Vliegvelden :

Mönchengladbach, Duitsland

Flughafen Mönchengladbach

breedte: 51-13-49N, lengte: 006-30-16E, hoogte: 38 m

Actueel weer

Dit bericht is 29 minuten geleden gemaakt, om 18:20 UTC
Wind 3 kt uit variabele richting
Temperatuur 19°C
Vochtigheid 64%
Druk 1007 hPa
Zicht 10 km of meer
geen wolken onder 1500 m en geen cumulonimbus

METAR: EDLN 271820Z VRB03KT CAVOK 19/12 Q1007

Tijdstip: 20:49 (18:49 UTC)

Verwachting

Dit bericht is 1 uur en het 49 minuten geleden gemaakt, om 17:00 UTC
Verwachting geldig van 27 om 18 UTC tot 28 om 03 UTC
Wind 5 kt uit het zuidwesten
Zicht 10 km of meer
geen wolken onder 1500 m en geen cumulonimbus

TAF: EDLN 271700Z 2718/2803 23005KT CAVOK

Waarnemingen en weersverwachtingen van meer dan 4000 vliegvelden (METAR en TAF).

De beschikbare stations zijn de gele en rode punten op de kaart.

Ga met uw muis naar het station om de naam te zien.

Klik dan om waarnemingen en weersverwachtingen te zien.

kaart wijzigen: klik op de groene knoppen met een zwart kruis om in te zoomen, op de groene knop met een streepje om uit te zoomen of op de groene pijlen voor aangrenzende kaarten.


METAR-TAF: